sensor_id;sensor_type;location;lat;lon;timestamp;temperature;humidity
59660;DHT22;45534;52.690;6.268;2022-09-09T00:04:03;14.30;99.90
59660;DHT22;45534;52.690;6.268;2022-09-09T00:06:33;14.30;99.90
59660;DHT22;45534;52.690;6.268;2022-09-09T00:09:28;14.30;99.90
59660;DHT22;45534;52.690;6.268;2022-09-09T00:12:29;14.30;99.90
59660;DHT22;45534;52.690;6.268;2022-09-09T00:15:04;14.30;99.90
59660;DHT22;45534;52.690;6.268;2022-09-09T00:18:00;14.30;99.90
59660;DHT22;45534;52.690;6.268;2022-09-09T00:20:48;14.40;99.90
59660;DHT22;45534;52.690;6.268;2022-09-09T00:23:25;14.40;99.90
59660;DHT22;45534;52.690;6.268;2022-09-09T00:26:04;14.40;99.90
59660;DHT22;45534;52.690;6.268;2022-09-09T00:28:33;14.40;99.90
59660;DHT22;45534;52.690;6.268;2022-09-09T00:31:13;14.40;99.90
59660;DHT22;45534;52.690;6.268;2022-09-09T00:33:39;14.40;99.90
59660;DHT22;45534;52.690;6.268;2022-09-09T00:36:14;14.50;99.90
59660;DHT22;45534;52.690;6.268;2022-09-09T00:38:50;14.50;99.90
59660;DHT22;45534;52.690;6.268;2022-09-09T00:49:39;14.60;99.90
59660;DHT22;45534;52.690;6.268;2022-09-09T00:52:32;14.70;99.90
59660;DHT22;45534;52.690;6.268;2022-09-09T00:57:47;14.70;99.90
59660;DHT22;45534;52.690;6.268;2022-09-09T01:09:02;14.80;99.90
59660;DHT22;45534;52.690;6.268;2022-09-09T01:11:00;14.80;99.90
59660;DHT22;45534;52.690;6.268;2022-09-09T01:13:33;14.80;99.90
59660;DHT22;45534;52.690;6.268;2022-09-09T01:16:02;14.90;99.90
59660;DHT22;45534;52.690;6.268;2022-09-09T01:18:49;14.90;99.90
59660;DHT22;45534;52.690;6.268;2022-09-09T01:26:45;14.90;99.90
59660;DHT22;45534;52.690;6.268;2022-09-09T01:29:16;14.90;99.90
59660;DHT22;45534;52.690;6.268;2022-09-09T01:31:53;14.90;99.90
59660;DHT22;45534;52.690;6.268;2022-09-09T01:34:19;14.90;99.90
59660;DHT22;45534;52.690;6.268;2022-09-09T01:39:20;14.90;99.90
59660;DHT22;45534;52.690;6.268;2022-09-09T01:41:46;14.90;99.90
59660;DHT22;45534;52.690;6.268;2022-09-09T01:44:12;14.90;99.90
59660;DHT22;45534;52.690;6.268;2022-09-09T01:46:38;14.90;99.90
59660;DHT22;45534;52.690;6.268;2022-09-09T01:49:06;14.90;99.90
59660;DHT22;45534;52.690;6.268;2022-09-09T01:51:34;14.90;99.90
59660;DHT22;45534;52.690;6.268;2022-09-09T01:54:00;14.90;99.90
59660;DHT22;45534;52.690;6.268;2022-09-09T02:04:43;14.90;99.90
59660;DHT22;45534;52.690;6.268;2022-09-09T02:07:19;14.90;99.90
59660;DHT22;45534;52.690;6.268;2022-09-09T02:09:52;14.90;99.90
59660;DHT22;45534;52.690;6.268;2022-09-09T02:12:24;14.90;99.90
59660;DHT22;45534;52.690;6.268;2022-09-09T02:14:56;14.90;99.90
59660;DHT22;45534;52.690;6.268;2022-09-09T02:17:28;14.90;99.90
59660;DHT22;45534;52.690;6.268;2022-09-09T02:20:06;14.90;99.90
59660;DHT22;45534;52.690;6.268;2022-09-09T02:22:34;14.90;99.90
59660;DHT22;45534;52.690;6.268;2022-09-09T02:25:02;14.90;99.90
59660;DHT22;45534;52.690;6.268;2022-09-09T02:27:30;14.90;99.90
59660;DHT22;45534;52.690;6.268;2022-09-09T02:29:58;14.90;99.90
59660;DHT22;45534;52.690;6.268;2022-09-09T02:32:28;14.90;99.90
59660;DHT22;45534;52.690;6.268;2022-09-09T02:35:03;14.90;99.90
59660;DHT22;45534;52.690;6.268;2022-09-09T02:37:37;14.80;99.90
59660;DHT22;45534;52.690;6.268;2022-09-09T02:40:08;14.90;99.90
59660;DHT22;45534;52.690;6.268;2022-09-09T02:42:39;14.90;99.90
59660;DHT22;45534;52.690;6.268;2022-09-09T02:45:06;14.90;99.90
59660;DHT22;45534;52.690;6.268;2022-09-09T02:47:44;14.90;99.90
59660;DHT22;45534;52.690;6.268;2022-09-09T02:50:33;14.90;99.90
59660;DHT22;45534;52.690;6.268;2022-09-09T02:53:05;14.80;99.90
59660;DHT22;45534;52.690;6.268;2022-09-09T02:55:43;14.90;99.90
59660;DHT22;45534;52.690;6.268;2022-09-09T02:58:14;14.80;99.90
59660;DHT22;45534;52.690;6.268;2022-09-09T03:00:44;14.80;99.90
59660;DHT22;45534;52.690;6.268;2022-09-09T03:03:10;14.80;99.90
59660;DHT22;45534;52.690;6.268;2022-09-09T03:05:36;14.80;99.90
59660;DHT22;45534;52.690;6.268;2022-09-09T03:08:03;14.80;99.90
59660;DHT22;45534;52.690;6.268;2022-09-09T03:10:31;14.80;99.90
59660;DHT22;45534;52.690;6.268;2022-09-09T03:12:57;14.80;99.90
59660;DHT22;45534;52.690;6.268;2022-09-09T03:15:22;14.80;99.90
59660;DHT22;45534;52.690;6.268;2022-09-09T03:17:48;14.80;99.90
59660;DHT22;45534;52.690;6.268;2022-09-09T03:20:14;14.80;99.90
59660;DHT22;45534;52.690;6.268;2022-09-09T03:22:40;14.80;99.90
59660;DHT22;45534;52.690;6.268;2022-09-09T03:25:06;14.80;99.90
59660;DHT22;45534;52.690;6.268;2022-09-09T03:27:32;14.80;99.90
59660;DHT22;45534;52.690;6.268;2022-09-09T03:29:58;14.80;99.90
59660;DHT22;45534;52.690;6.268;2022-09-09T03:32:24;14.80;99.90
59660;DHT22;45534;52.690;6.268;2022-09-09T03:34:51;14.80;99.90
59660;DHT22;45534;52.690;6.268;2022-09-09T03:37:20;14.70;99.90
59660;DHT22;45534;52.690;6.268;2022-09-09T03:39:46;14.70;99.90
59660;DHT22;45534;52.690;6.268;2022-09-09T03:42:15;14.70;99.90
59660;DHT22;45534;52.690;6.268;2022-09-09T03:44:45;14.60;99.90
59660;DHT22;45534;52.690;6.268;2022-09-09T03:47:16;14.60;99.90
59660;DHT22;45534;52.690;6.268;2022-09-09T03:49:42;14.60;99.90
59660;DHT22;45534;52.690;6.268;2022-09-09T03:52:09;14.60;99.90
59660;DHT22;45534;52.690;6.268;2022-09-09T03:54:35;14.50;99.90
59660;DHT22;45534;52.690;6.268;2022-09-09T03:57:01;14.50;99.90
59660;DHT22;45534;52.690;6.268;2022-09-09T03:59:27;14.50;99.90
59660;DHT22;45534;52.690;6.268;2022-09-09T04:01:53;14.50;99.90
59660;DHT22;45534;52.690;6.268;2022-09-09T04:04:20;14.40;99.90
59660;DHT22;45534;52.690;6.268;2022-09-09T04:06:46;14.40;99.90
59660;DHT22;45534;52.690;6.268;2022-09-09T04:09:14;14.40;99.90
59660;DHT22;45534;52.690;6.268;2022-09-09T04:11:40;14.40;99.90
59660;DHT22;45534;52.690;6.268;2022-09-09T04:14:06;14.40;99.90
59660;DHT22;45534;52.690;6.268;2022-09-09T04:16:33;14.30;99.90
59660;DHT22;45534;52.690;6.268;2022-09-09T04:18:59;14.30;99.90
59660;DHT22;45534;52.690;6.268;2022-09-09T04:21:26;14.30;99.90
59660;DHT22;45534;52.690;6.268;2022-09-09T04:23:51;14.30;99.90
59660;DHT22;45534;52.690;6.268;2022-09-09T04:26:18;14.30;99.90
59660;DHT22;45534;52.690;6.268;2022-09-09T04:28:44;14.30;99.90
59660;DHT22;45534;52.690;6.268;2022-09-09T04:31:20;14.20;99.90
59660;DHT22;45534;52.690;6.268;2022-09-09T04:33:48;14.20;99.90
59660;DHT22;45534;52.690;6.268;2022-09-09T04:36:15;14.20;99.90
59660;DHT22;45534;52.690;6.268;2022-09-09T04:38:41;14.20;99.90
59660;DHT22;45534;52.690;6.268;2022-09-09T04:41:07;14.20;99.90
59660;DHT22;45534;52.690;6.268;2022-09-09T04:43:34;14.20;99.90
59660;DHT22;45534;52.690;6.268;2022-09-09T04:45:59;14.20;99.90
59660;DHT22;45534;52.690;6.268;2022-09-09T04:48:25;14.10;99.90
59660;DHT22;45534;52.690;6.268;2022-09-09T04:50:55;14.10;99.90
59660;DHT22;45534;52.690;6.268;2022-09-09T04:53:21;14.10;99.90
59660;DHT22;45534;52.690;6.268;2022-09-09T04:55:47;14.10;99.90
59660;DHT22;45534;52.690;6.268;2022-09-09T04:58:14;14.10;99.90
59660;DHT22;45534;52.690;6.268;2022-09-09T05:00:39;14.10;99.90
59660;DHT22;45534;52.690;6.268;2022-09-09T05:03:05;14.10;99.90
59660;DHT22;45534;52.690;6.268;2022-09-09T05:05:32;14.00;99.90
59660;DHT22;45534;52.690;6.268;2022-09-09T05:08:07;14.00;99.90
59660;DHT22;45534;52.690;6.268;2022-09-09T05:10:36;14.00;99.90
59660;DHT22;45534;52.690;6.268;2022-09-09T05:13:02;14.00;99.90
59660;DHT22;45534;52.690;6.268;2022-09-09T05:15:27;14.00;99.90
59660;DHT22;45534;52.690;6.268;2022-09-09T05:18:00;14.00;99.90
59660;DHT22;45534;52.690;6.268;2022-09-09T05:20:26;14.00;99.90
59660;DHT22;45534;52.690;6.268;2022-09-09T05:22:53;14.00;99.90
59660;DHT22;45534;52.690;6.268;2022-09-09T05:25:19;14.00;99.90
59660;DHT22;45534;52.690;6.268;2022-09-09T05:27:45;14.00;99.90
59660;DHT22;45534;52.690;6.268;2022-09-09T05:30:11;14.00;99.90
59660;DHT22;45534;52.690;6.268;2022-09-09T05:32:37;14.00;99.90
59660;DHT22;45534;52.690;6.268;2022-09-09T05:35:03;14.00;99.90
59660;DHT22;45534;52.690;6.268;2022-09-09T05:37:30;14.00;99.90
59660;DHT22;45534;52.690;6.268;2022-09-09T05:39:56;14.00;99.90
59660;DHT22;45534;52.690;6.268;2022-09-09T05:42:23;14.00;99.90
59660;DHT22;45534;52.690;6.268;2022-09-09T05:44:49;14.10;99.90
59660;DHT22;45534;52.690;6.268;2022-09-09T05:47:16;14.00;99.90
59660;DHT22;45534;52.690;6.268;2022-09-09T05:49:42;14.00;99.90
59660;DHT22;45534;52.690;6.268;2022-09-09T05:52:08;14.00;99.90
59660;DHT22;45534;52.690;6.268;2022-09-09T05:54:35;14.00;99.90
59660;DHT22;45534;52.690;6.268;2022-09-09T05:57:03;14.00;99.90
59660;DHT22;45534;52.690;6.268;2022-09-09T05:59:29;14.00;99.90
59660;DHT22;45534;52.690;6.268;2022-09-09T06:01:54;14.10;99.90
59660;DHT22;45534;52.690;6.268;2022-09-09T06:04:20;14.10;99.90
59660;DHT22;45534;52.690;6.268;2022-09-09T06:06:47;14.10;99.90
59660;DHT22;45534;52.690;6.268;2022-09-09T06:09:14;14.10;99.90
59660;DHT22;45534;52.690;6.268;2022-09-09T06:11:41;14.20;99.90
59660;DHT22;45534;52.690;6.268;2022-09-09T06:14:07;14.20;99.90
59660;DHT22;45534;52.690;6.268;2022-09-09T06:16:34;14.20;99.90
59660;DHT22;45534;52.690;6.268;2022-09-09T06:19:00;14.30;99.90
59660;DHT22;45534;52.690;6.268;2022-09-09T06:21:32;14.30;99.90
59660;DHT22;45534;52.690;6.268;2022-09-09T06:23:59;14.30;99.90
59660;DHT22;45534;52.690;6.268;2022-09-09T06:26:30;14.30;99.90
59660;DHT22;45534;52.690;6.268;2022-09-09T06:28:56;14.30;99.90
59660;DHT22;45534;52.690;6.268;2022-09-09T06:31:25;14.30;99.90
59660;DHT22;45534;52.690;6.268;2022-09-09T06:33:52;14.30;99.90
59660;DHT22;45534;52.690;6.268;2022-09-09T06:36:19;14.40;99.90
59660;DHT22;45534;52.690;6.268;2022-09-09T06:38:46;14.40;99.90
59660;DHT22;45534;52.690;6.268;2022-09-09T06:41:14;14.40;99.90
59660;DHT22;45534;52.690;6.268;2022-09-09T06:43:40;14.50;99.90
59660;DHT22;45534;52.690;6.268;2022-09-09T06:46:10;14.60;99.90
59660;DHT22;45534;52.690;6.268;2022-09-09T06:48:36;14.60;99.90
59660;DHT22;45534;52.690;6.268;2022-09-09T06:51:09;14.60;99.90
59660;DHT22;45534;52.690;6.268;2022-09-09T06:53:37;14.70;99.90
59660;DHT22;45534;52.690;6.268;2022-09-09T06:56:30;14.70;99.90
59660;DHT22;45534;52.690;6.268;2022-09-09T06:58:58;14.80;99.90
59660;DHT22;45534;52.690;6.268;2022-09-09T07:01:26;14.80;99.90
59660;DHT22;45534;52.690;6.268;2022-09-09T07:03:54;14.90;99.90
59660;DHT22;45534;52.690;6.268;2022-09-09T07:06:25;14.90;99.90
59660;DHT22;45534;52.690;6.268;2022-09-09T07:08:53;15.00;99.90
59660;DHT22;45534;52.690;6.268;2022-09-09T07:11:22;15.10;99.90
59660;DHT22;45534;52.690;6.268;2022-09-09T07:13:48;15.20;99.90
59660;DHT22;45534;52.690;6.268;2022-09-09T07:16:17;15.30;99.90
59660;DHT22;45534;52.690;6.268;2022-09-09T07:18:43;15.40;99.90
59660;DHT22;45534;52.690;6.268;2022-09-09T07:21:11;15.50;99.90
59660;DHT22;45534;52.690;6.268;2022-09-09T07:23:37;15.60;99.90
59660;DHT22;45534;52.690;6.268;2022-09-09T07:26:08;15.60;99.90
59660;DHT22;45534;52.690;6.268;2022-09-09T07:28:34;15.60;99.90
59660;DHT22;45534;52.690;6.268;2022-09-09T07:31:01;15.60;99.90
59660;DHT22;45534;52.690;6.268;2022-09-09T07:33:28;15.70;99.90
59660;DHT22;45534;52.690;6.268;2022-09-09T07:36:05;15.70;99.90
59660;DHT22;45534;52.690;6.268;2022-09-09T07:38:37;15.80;99.90
59660;DHT22;45534;52.690;6.268;2022-09-09T07:41:08;15.90;99.90
59660;DHT22;45534;52.690;6.268;2022-09-09T07:43:45;15.90;99.90
59660;DHT22;45534;52.690;6.268;2022-09-09T07:46:12;16.00;99.90
59660;DHT22;45534;52.690;6.268;2022-09-09T07:48:43;16.00;99.90
59660;DHT22;45534;52.690;6.268;2022-09-09T07:51:11;16.00;99.90
59660;DHT22;45534;52.690;6.268;2022-09-09T07:53:38;16.10;99.90
59660;DHT22;45534;52.690;6.268;2022-09-09T07:56:06;16.10;99.90
59660;DHT22;45534;52.690;6.268;2022-09-09T07:58:33;16.10;99.90
59660;DHT22;45534;52.690;6.268;2022-09-09T08:00:58;16.10;99.90
59660;DHT22;45534;52.690;6.268;2022-09-09T08:03:24;16.10;99.90
59660;DHT22;45534;52.690;6.268;2022-09-09T08:05:50;16.10;99.90
59660;DHT22;45534;52.690;6.268;2022-09-09T08:08:17;16.20;99.90
59660;DHT22;45534;52.690;6.268;2022-09-09T08:10:42;16.30;99.90
59660;DHT22;45534;52.690;6.268;2022-09-09T08:13:09;16.30;99.90
59660;DHT22;45534;52.690;6.268;2022-09-09T08:15:34;16.40;99.90
59660;DHT22;45534;52.690;6.268;2022-09-09T08:18:00;16.50;99.90
59660;DHT22;45534;52.690;6.268;2022-09-09T08:20:26;16.60;99.90
59660;DHT22;45534;52.690;6.268;2022-09-09T08:22:52;16.70;99.90
59660;DHT22;45534;52.690;6.268;2022-09-09T08:25:18;16.80;99.90
59660;DHT22;45534;52.690;6.268;2022-09-09T08:27:43;16.90;99.90
59660;DHT22;45534;52.690;6.268;2022-09-09T08:30:09;17.00;99.90
59660;DHT22;45534;52.690;6.268;2022-09-09T08:32:35;17.10;99.90
59660;DHT22;45534;52.690;6.268;2022-09-09T08:35:01;17.20;99.90
59660;DHT22;45534;52.690;6.268;2022-09-09T08:37:27;17.20;99.90
59660;DHT22;45534;52.690;6.268;2022-09-09T08:39:52;17.20;99.90
59660;DHT22;45534;52.690;6.268;2022-09-09T08:42:40;17.40;99.90
59660;DHT22;45534;52.690;6.268;2022-09-09T08:48:23;17.60;99.90
59660;DHT22;45534;52.690;6.268;2022-09-09T08:50:54;17.60;99.90
59660;DHT22;45534;52.690;6.268;2022-09-09T08:53:30;17.70;99.90
59660;DHT22;45534;52.690;6.268;2022-09-09T08:56:04;17.70;99.90
59660;DHT22;45534;52.690;6.268;2022-09-09T08:58:35;17.70;99.90
59660;DHT22;45534;52.690;6.268;2022-09-09T09:04:20;17.80;99.90
59660;DHT22;45534;52.690;6.268;2022-09-09T09:06:31;17.90;99.90
59660;DHT22;45534;52.690;6.268;2022-09-09T09:11:43;18.10;99.90
59660;DHT22;45534;52.690;6.268;2022-09-09T09:14:22;18.10;99.90
59660;DHT22;45534;52.690;6.268;2022-09-09T09:17:02;18.10;99.90
59660;DHT22;45534;52.690;6.268;2022-09-09T09:19:31;18.20;99.90
59660;DHT22;45534;52.690;6.268;2022-09-09T09:24:51;18.20;99.90
59660;DHT22;45534;52.690;6.268;2022-09-09T09:27:32;18.20;99.90
59660;DHT22;45534;52.690;6.268;2022-09-09T09:30:00;18.20;99.90
59660;DHT22;45534;52.690;6.268;2022-09-09T09:32:30;18.20;99.90
59660;DHT22;45534;52.690;6.268;2022-09-09T09:34:57;18.20;99.90
59660;DHT22;45534;52.690;6.268;2022-09-09T09:37:32;18.30;99.90
59660;DHT22;45534;52.690;6.268;2022-09-09T09:40:18;18.50;99.90
59660;DHT22;45534;52.690;6.268;2022-09-09T09:43:03;18.60;99.90
59660;DHT22;45534;52.690;6.268;2022-09-09T09:45:40;18.70;99.90
59660;DHT22;45534;52.690;6.268;2022-09-09T09:48:10;18.80;99.90
59660;DHT22;45534;52.690;6.268;2022-09-09T09:50:48;18.90;99.90
59660;DHT22;45534;52.690;6.268;2022-09-09T09:53:24;18.90;99.90
59660;DHT22;45534;52.690;6.268;2022-09-09T09:56:01;18.80;99.90
59660;DHT22;45534;52.690;6.268;2022-09-09T09:58:31;18.80;99.90
59660;DHT22;45534;52.690;6.268;2022-09-09T10:01:00;18.70;99.90
59660;DHT22;45534;52.690;6.268;2022-09-09T10:03:29;18.50;99.90
59660;DHT22;45534;52.690;6.268;2022-09-09T10:05:55;18.50;99.90
59660;DHT22;45534;52.690;6.268;2022-09-09T10:08:25;18.50;99.90
59660;DHT22;45534;52.690;6.268;2022-09-09T10:22:31;18.60;99.90
59660;DHT22;45534;52.690;6.268;2022-09-09T10:25:31;18.60;99.90
59660;DHT22;45534;52.690;6.268;2022-09-09T10:28:33;18.60;99.90
59660;DHT22;45534;52.690;6.268;2022-09-09T10:34:04;18.50;99.90
59660;DHT22;45534;52.690;6.268;2022-09-09T10:36:26;18.50;99.90
59660;DHT22;45534;52.690;6.268;2022-09-09T10:55:41;18.50;99.90
59660;DHT22;45534;52.690;6.268;2022-09-09T10:58:22;18.40;99.90
59660;DHT22;45534;52.690;6.268;2022-09-09T11:01:02;18.20;99.90
59660;DHT22;45534;52.690;6.268;2022-09-09T11:03:35;18.20;99.90
59660;DHT22;45534;52.690;6.268;2022-09-09T11:06:06;18.10;99.90
59660;DHT22;45534;52.690;6.268;2022-09-09T11:08:38;18.10;99.90
59660;DHT22;45534;52.690;6.268;2022-09-09T11:11:20;18.10;99.90
59660;DHT22;45534;52.690;6.268;2022-09-09T11:19:21;18.60;99.90
59660;DHT22;45534;52.690;6.268;2022-09-09T11:21:50;18.80;99.90
59660;DHT22;45534;52.690;6.268;2022-09-09T11:27:25;19.00;99.90
59660;DHT22;45534;52.690;6.268;2022-09-09T11:32:45;19.30;99.90
59660;DHT22;45534;52.690;6.268;2022-09-09T11:38:18;19.60;99.90
59660;DHT22;45534;52.690;6.268;2022-09-09T11:40:44;19.90;99.90
59660;DHT22;45534;52.690;6.268;2022-09-09T11:43:17;20.40;99.90
59660;DHT22;45534;52.690;6.268;2022-09-09T11:45:52;20.70;99.90
59660;DHT22;45534;52.690;6.268;2022-09-09T11:53:35;20.60;99.90
59660;DHT22;45534;52.690;6.268;2022-09-09T11:56:13;20.50;99.90
59660;DHT22;45534;52.690;6.268;2022-09-09T11:59:06;20.40;99.90
59660;DHT22;45534;52.690;6.268;2022-09-09T12:01:46;20.30;99.90
59660;DHT22;45534;52.690;6.268;2022-09-09T12:06:56;20.10;99.90
59660;DHT22;45534;52.690;6.268;2022-09-09T12:09:42;20.10;99.90
59660;DHT22;45534;52.690;6.268;2022-09-09T12:17:27;19.50;99.90
59660;DHT22;45534;52.690;6.268;2022-09-09T12:20:16;19.50;99.90
59660;DHT22;45534;52.690;6.268;2022-09-09T12:28:06;19.60;99.90
59660;DHT22;45534;52.690;6.268;2022-09-09T12:30:52;19.90;99.90
59660;DHT22;45534;52.690;6.268;2022-09-09T12:33:21;20.20;99.90
59660;DHT22;45534;52.690;6.268;2022-09-09T12:35:55;20.60;99.90
59660;DHT22;45534;52.690;6.268;2022-09-09T12:38:36;20.80;99.90
59660;DHT22;45534;52.690;6.268;2022-09-09T12:41:03;20.80;99.90
59660;DHT22;45534;52.690;6.268;2022-09-09T12:43:30;20.60;99.90
59660;DHT22;45534;52.690;6.268;2022-09-09T12:46:09;20.40;99.90
59660;DHT22;45534;52.690;6.268;2022-09-09T12:48:39;20.40;99.90
59660;DHT22;45534;52.690;6.268;2022-09-09T12:51:24;20.30;99.90
59660;DHT22;45534;52.690;6.268;2022-09-09T12:53:51;20.40;99.90
59660;DHT22;45534;52.690;6.268;2022-09-09T12:56:23;20.40;99.90
59660;DHT22;45534;52.690;6.268;2022-09-09T12:58:53;20.50;99.90
59660;DHT22;45534;52.690;6.268;2022-09-09T13:03:49;20.40;99.90
59660;DHT22;45534;52.690;6.268;2022-09-09T13:06:26;20.30;99.90
59660;DHT22;45534;52.690;6.268;2022-09-09T13:08:53;20.00;99.90
59660;DHT22;45534;52.690;6.268;2022-09-09T13:13:53;19.50;99.90
59660;DHT22;45534;52.690;6.268;2022-09-09T13:16:26;19.20;99.90
59660;DHT22;45534;52.690;6.268;2022-09-09T13:19:15;19.20;99.90
59660;DHT22;45534;52.690;6.268;2022-09-09T13:21:42;19.70;99.90
59660;DHT22;45534;52.690;6.268;2022-09-09T13:27:23;21.10;99.90
59660;DHT22;45534;52.690;6.268;2022-09-09T13:29:53;21.60;99.90
59660;DHT22;45534;52.690;6.268;2022-09-09T13:32:24;22.00;99.90
59660;DHT22;45534;52.690;6.268;2022-09-09T13:34:55;21.80;99.90
59660;DHT22;45534;52.690;6.268;2022-09-09T13:37:36;21.60;99.90
59660;DHT22;45534;52.690;6.268;2022-09-09T13:40:04;21.60;99.90
59660;DHT22;45534;52.690;6.268;2022-09-09T13:42:33;21.80;99.90
59660;DHT22;45534;52.690;6.268;2022-09-09T13:45:03;21.60;99.90
59660;DHT22;45534;52.690;6.268;2022-09-09T13:47:33;21.30;99.90
59660;DHT22;45534;52.690;6.268;2022-09-09T13:52:48;20.90;99.90
59660;DHT22;45534;52.690;6.268;2022-09-09T13:55:15;21.10;99.90
59660;DHT22;45534;52.690;6.268;2022-09-09T13:58:00;21.30;99.90
59660;DHT22;45534;52.690;6.268;2022-09-09T14:00:29;21.40;99.90
59660;DHT22;45534;52.690;6.268;2022-09-09T14:02:55;21.30;99.90
59660;DHT22;45534;52.690;6.268;2022-09-09T14:05:21;21.20;99.90
59660;DHT22;45534;52.690;6.268;2022-09-09T14:07:48;21.20;99.90
59660;DHT22;45534;52.690;6.268;2022-09-09T14:10:14;21.00;99.90
59660;DHT22;45534;52.690;6.268;2022-09-09T14:12:40;20.90;99.90
59660;DHT22;45534;52.690;6.268;2022-09-09T14:15:09;21.00;99.90
59660;DHT22;45534;52.690;6.268;2022-09-09T14:17:35;21.40;99.90
59660;DHT22;45534;52.690;6.268;2022-09-09T14:20:03;21.50;99.90
59660;DHT22;45534;52.690;6.268;2022-09-09T14:22:31;21.40;99.90
59660;DHT22;45534;52.690;6.268;2022-09-09T14:24:57;21.10;99.90
59660;DHT22;45534;52.690;6.268;2022-09-09T14:27:23;20.80;99.90
59660;DHT22;45534;52.690;6.268;2022-09-09T14:29:48;20.60;99.90
59660;DHT22;45534;52.690;6.268;2022-09-09T14:32:14;20.50;99.90
59660;DHT22;45534;52.690;6.268;2022-09-09T14:34:40;20.80;99.90
59660;DHT22;45534;52.690;6.268;2022-09-09T14:37:05;20.90;99.90
59660;DHT22;45534;52.690;6.268;2022-09-09T14:39:31;20.90;99.90
59660;DHT22;45534;52.690;6.268;2022-09-09T14:41:57;20.80;99.90
59660;DHT22;45534;52.690;6.268;2022-09-09T14:44:23;20.90;99.90
59660;DHT22;45534;52.690;6.268;2022-09-09T14:46:49;20.90;99.90
59660;DHT22;45534;52.690;6.268;2022-09-09T14:49:15;20.80;99.90
59660;DHT22;45534;52.690;6.268;2022-09-09T14:51:41;20.60;99.90
59660;DHT22;45534;52.690;6.268;2022-09-09T14:54:07;20.40;99.90
59660;DHT22;45534;52.690;6.268;2022-09-09T14:56:34;20.20;99.90
59660;DHT22;45534;52.690;6.268;2022-09-09T14:59:03;20.20;99.90
59660;DHT22;45534;52.690;6.268;2022-09-09T15:01:30;20.10;99.90
59660;DHT22;45534;52.690;6.268;2022-09-09T15:04:00;20.00;99.90
59660;DHT22;45534;52.690;6.268;2022-09-09T15:06:28;19.90;99.90
59660;DHT22;45534;52.690;6.268;2022-09-09T15:08:55;19.70;99.90
59660;DHT22;45534;52.690;6.268;2022-09-09T15:11:23;19.60;99.90
59660;DHT22;45534;52.690;6.268;2022-09-09T15:13:51;19.50;99.90
59660;DHT22;45534;52.690;6.268;2022-09-09T15:16:23;19.40;99.90
59660;DHT22;45534;52.690;6.268;2022-09-09T15:18:51;19.20;99.90
59660;DHT22;45534;52.690;6.268;2022-09-09T15:21:20;19.10;99.90
59660;DHT22;45534;52.690;6.268;2022-09-09T15:23:47;19.00;99.90
59660;DHT22;45534;52.690;6.268;2022-09-09T15:26:16;18.80;99.90
59660;DHT22;45534;52.690;6.268;2022-09-09T15:28:44;18.70;99.90
59660;DHT22;45534;52.690;6.268;2022-09-09T15:31:15;18.60;99.90
59660;DHT22;45534;52.690;6.268;2022-09-09T15:36:19;18.70;99.90
59660;DHT22;45534;52.690;6.268;2022-09-09T15:38:45;18.70;99.90
59660;DHT22;45534;52.690;6.268;2022-09-09T15:41:12;18.70;99.90
59660;DHT22;45534;52.690;6.268;2022-09-09T15:43:39;18.70;99.90
59660;DHT22;45534;52.690;6.268;2022-09-09T15:48:45;18.60;99.90
59660;DHT22;45534;52.690;6.268;2022-09-09T15:51:12;18.70;99.90
59660;DHT22;45534;52.690;6.268;2022-09-09T15:53:39;18.90;99.90
59660;DHT22;45534;52.690;6.268;2022-09-09T15:56:08;18.90;99.90
59660;DHT22;45534;52.690;6.268;2022-09-09T15:58:34;18.80;99.90
59660;DHT22;45534;52.690;6.268;2022-09-09T16:01:08;18.70;99.90
59660;DHT22;45534;52.690;6.268;2022-09-09T16:03:39;18.70;99.90
59660;DHT22;45534;52.690;6.268;2022-09-09T16:06:06;18.70;99.90
59660;DHT22;45534;52.690;6.268;2022-09-09T16:08:33;18.70;99.90
59660;DHT22;45534;52.690;6.268;2022-09-09T16:11:07;18.60;99.90
59660;DHT22;45534;52.690;6.268;2022-09-09T16:13:38;18.60;99.90
59660;DHT22;45534;52.690;6.268;2022-09-09T16:16:05;18.50;99.90
59660;DHT22;45534;52.690;6.268;2022-09-09T16:18:54;18.50;99.90
59660;DHT22;45534;52.690;6.268;2022-09-09T16:21:26;18.50;99.90
59660;DHT22;45534;52.690;6.268;2022-09-09T16:23:55;18.50;99.90
59660;DHT22;45534;52.690;6.268;2022-09-09T16:26:22;18.50;99.90
59660;DHT22;45534;52.690;6.268;2022-09-09T16:28:49;18.50;99.90
59660;DHT22;45534;52.690;6.268;2022-09-09T16:31:21;18.50;99.90
59660;DHT22;45534;52.690;6.268;2022-09-09T16:33:47;18.50;99.90
59660;DHT22;45534;52.690;6.268;2022-09-09T16:36:15;18.40;99.90
59660;DHT22;45534;52.690;6.268;2022-09-09T16:38:41;18.40;99.90
59660;DHT22;45534;52.690;6.268;2022-09-09T16:41:09;18.40;99.90
59660;DHT22;45534;52.690;6.268;2022-09-09T16:43:36;18.40;99.90
59660;DHT22;45534;52.690;6.268;2022-09-09T16:46:33;18.30;99.90
59660;DHT22;45534;52.690;6.268;2022-09-09T16:49:01;18.30;99.90
59660;DHT22;45534;52.690;6.268;2022-09-09T16:51:32;18.20;99.90
59660;DHT22;45534;52.690;6.268;2022-09-09T16:54:00;18.20;99.90
59660;DHT22;45534;52.690;6.268;2022-09-09T16:56:27;18.10;99.90
59660;DHT22;45534;52.690;6.268;2022-09-09T16:58:58;18.10;99.90
59660;DHT22;45534;52.690;6.268;2022-09-09T17:01:26;18.10;99.90
59660;DHT22;45534;52.690;6.268;2022-09-09T17:03:53;18.10;99.90
59660;DHT22;45534;52.690;6.268;2022-09-09T17:06:19;18.10;99.90
59660;DHT22;45534;52.690;6.268;2022-09-09T17:08:45;18.10;99.90
59660;DHT22;45534;52.690;6.268;2022-09-09T17:11:12;18.00;99.90
59660;DHT22;45534;52.690;6.268;2022-09-09T17:13:45;18.00;99.90
59660;DHT22;45534;52.690;6.268;2022-09-09T17:16:12;18.10;99.90
59660;DHT22;45534;52.690;6.268;2022-09-09T17:18:38;18.00;99.90
59660;DHT22;45534;52.690;6.268;2022-09-09T17:21:09;18.00;99.90
59660;DHT22;45534;52.690;6.268;2022-09-09T17:23:36;17.90;99.90
59660;DHT22;45534;52.690;6.268;2022-09-09T17:26:08;17.90;99.90
59660;DHT22;45534;52.690;6.268;2022-09-09T17:28:36;17.90;99.90
59660;DHT22;45534;52.690;6.268;2022-09-09T17:31:02;17.80;99.90
59660;DHT22;45534;52.690;6.268;2022-09-09T17:33:29;17.80;99.90
59660;DHT22;45534;52.690;6.268;2022-09-09T17:36:07;17.80;99.90
59660;DHT22;45534;52.690;6.268;2022-09-09T17:38:33;17.70;99.90
59660;DHT22;45534;52.690;6.268;2022-09-09T17:41:35;17.70;99.90
59660;DHT22;45534;52.690;6.268;2022-09-09T17:44:01;17.60;99.90
59660;DHT22;45534;52.690;6.268;2022-09-09T17:46:35;17.60;99.90
59660;DHT22;45534;52.690;6.268;2022-09-09T17:49:07;17.50;99.90
59660;DHT22;45534;52.690;6.268;2022-09-09T17:51:35;17.40;99.90
59660;DHT22;45534;52.690;6.268;2022-09-09T17:54:07;17.40;99.90
59660;DHT22;45534;52.690;6.268;2022-09-09T17:56:35;17.30;99.90
59660;DHT22;45534;52.690;6.268;2022-09-09T17:59:03;17.30;99.90